createdAt,value
2022-09-07T00:03:30.519Z,5.15
2022-09-07T00:08:32.407Z,6.22
2022-09-07T00:13:37.722Z,6.50
2022-09-07T00:18:43.805Z,3.78
2022-09-07T00:23:48.726Z,5.37
2022-09-07T00:28:50.735Z,2.55
2022-09-07T00:33:58.823Z,3.38
2022-09-07T00:39:00.586Z,4.03
2022-09-07T00:44:39.632Z,2.92
2022-09-07T00:49:44.874Z,2.05
2022-09-07T00:54:52.802Z,4.10
2022-09-07T00:59:57.632Z,7.43
2022-09-07T01:05:09.534Z,2.08
2022-09-07T01:10:11.922Z,1.85
2022-09-07T01:15:13.580Z,2.40
2022-09-07T01:20:36.498Z,3.03
2022-09-07T01:25:56.903Z,1.55
2022-09-07T01:31:09.145Z,3.58
2022-09-07T01:36:26.238Z,3.03
2022-09-07T01:41:42.979Z,3.30
2022-09-07T01:46:53.818Z,1.25
2022-09-07T01:52:04.683Z,2.25
2022-09-07T01:57:14.318Z,1.15
2022-09-07T02:02:29.470Z,1.38
2022-09-07T02:07:40.315Z,2.70
2022-09-07T02:12:52.536Z,1.75
2022-09-07T02:18:04.852Z,1.70
2022-09-07T02:23:16.051Z,1.40
2022-09-07T02:28:24.873Z,1.30
2022-09-07T02:33:27.898Z,1.55
2022-09-07T02:38:30.200Z,1.63
2022-09-07T02:43:32.908Z,2.08
2022-09-07T02:48:52.978Z,1.02
2022-09-07T02:54:15.758Z,1.05
2022-09-07T02:59:26.016Z,1.05
2022-09-07T03:05:05.525Z,1.75
2022-09-07T03:10:08.636Z,1.40
2022-09-07T03:15:13.119Z,1.70
2022-09-07T03:20:17.100Z,3.17
2022-09-07T03:25:19.404Z,1.60
2022-09-07T03:30:21.200Z,1.25
2022-09-07T03:35:22.831Z,2.67
2022-09-07T03:40:25.468Z,2.47
2022-09-07T03:45:27.135Z,1.50
2022-09-07T03:50:33.001Z,1.80
2022-09-07T03:55:34.674Z,2.00
2022-09-07T04:00:41.455Z,1.25
2022-09-07T04:05:43.012Z,1.73
2022-09-07T04:10:44.726Z,1.38
2022-09-07T04:15:47.612Z,1.48
2022-09-07T04:20:52.040Z,1.73
2022-09-07T04:25:53.752Z,1.20
2022-09-07T04:30:55.487Z,2.83
2022-09-07T04:36:00.269Z,1.83
2022-09-07T04:41:06.729Z,2.00
2022-09-07T04:46:17.567Z,2.50
2022-09-07T04:51:21.200Z,3.83
2022-09-07T04:56:23.670Z,1.83
2022-09-07T05:01:26.244Z,1.65
2022-09-07T05:06:28.352Z,2.95
2022-09-07T05:11:30.313Z,3.45
2022-09-07T05:16:38.289Z,2.67
2022-09-07T05:21:40.226Z,2.85
2022-09-07T05:26:42.217Z,2.03
2022-09-07T05:31:43.868Z,3.92
2022-09-07T05:36:45.621Z,3.15
2022-09-07T05:41:47.683Z,4.53
2022-09-07T05:46:49.399Z,3.17
2022-09-07T05:51:51.096Z,2.65
2022-09-07T05:56:52.803Z,2.78
2022-09-07T06:01:54.567Z,3.45
2022-09-07T06:07:19.966Z,2.47
2022-09-07T06:12:18.023Z,4.18
2022-09-07T06:17:19.787Z,2.70
2022-09-07T06:22:21.633Z,2.92
2022-09-07T06:27:23.611Z,3.03
2022-09-07T06:37:44.153Z,5.00
2022-09-07T06:42:46.926Z,3.75
2022-09-07T06:47:54.034Z,3.30
2022-09-07T06:58:17.478Z,2.45
2022-09-07T07:03:19.419Z,3.78
2022-09-07T07:08:23.352Z,4.00
2022-09-07T07:13:25.126Z,2.67
2022-09-07T07:18:27.884Z,2.75
2022-09-07T07:23:29.800Z,4.75
2022-09-07T07:33:53.828Z,2.25
2022-09-07T07:44:03.370Z,3.42
2022-09-07T07:49:05.077Z,3.10
2022-09-07T07:54:06.667Z,5.05
2022-09-07T07:59:15.041Z,4.10
2022-09-07T08:04:17.339Z,5.10
2022-09-07T08:09:18.979Z,7.07
2022-09-07T08:14:21.965Z,5.88
2022-09-07T08:19:23.649Z,5.68
2022-09-07T08:24:32.817Z,6.47
2022-09-07T08:29:35.589Z,6.97
2022-09-07T08:34:37.452Z,6.10
2022-09-07T08:39:39.126Z,7.43
2022-09-07T08:44:49.877Z,8.05
2022-09-07T08:50:12.161Z,6.78
2022-09-07T08:55:13.747Z,6.78
2022-09-07T09:00:17.659Z,7.00
2022-09-07T09:05:57.755Z,6.10
2022-09-07T09:10:59.461Z,7.60
2022-09-07T09:16:28.204Z,5.93
2022-09-07T09:21:30.285Z,6.53
2022-09-07T09:26:34.405Z,8.15
2022-09-07T09:31:36.172Z,6.57
2022-09-07T09:36:49.566Z,5.22
2022-09-07T09:41:51.638Z,4.60
2022-09-07T09:52:30.001Z,6.68
2022-09-07T10:09:02.401Z,4.70
2022-09-07T10:14:04.494Z,3.40
2022-09-07T10:19:06.436Z,5.35
2022-09-07T10:24:07.995Z,5.78
2022-09-07T10:29:24.824Z,3.75
2022-09-07T10:34:56.149Z,6.80
2022-09-07T10:40:26.008Z,6.45
2022-09-07T10:45:58.644Z,5.10
2022-09-07T10:51:14.102Z,2.63
2022-09-07T10:56:27.855Z,4.38
2022-09-07T11:01:52.816Z,10.88
2022-09-07T11:07:16.216Z,3.40
2022-09-07T11:12:39.272Z,4.75
2022-09-07T11:17:49.365Z,6.43
2022-09-07T11:23:07.014Z,6.57
2022-09-07T11:28:23.070Z,4.75
2022-09-07T11:33:32.167Z,4.82
2022-09-07T11:38:49.676Z,6.00
2022-09-07T11:43:58.239Z,5.75
2022-09-07T11:49:00.050Z,6.80
2022-09-07T11:54:19.880Z,6.50
2022-09-07T11:59:36.751Z,4.70
2022-09-07T12:04:58.986Z,7.57
2022-09-07T12:10:28.321Z,5.20
2022-09-07T12:15:48.150Z,3.92
2022-09-07T12:20:50.177Z,9.85
2022-09-07T12:25:52.599Z,4.95
2022-09-07T12:31:00.301Z,6.70
2022-09-07T12:36:22.844Z,6.47
2022-09-07T12:41:39.676Z,3.22
2022-09-07T12:46:46.730Z,6.85
2022-09-07T12:52:04.989Z,4.57
2022-09-07T12:57:36.252Z,5.22
2022-09-07T13:03:00.600Z,6.57
2022-09-07T13:08:24.195Z,6.45
2022-09-07T13:18:52.432Z,7.20
2022-09-07T13:29:55.455Z,15.40
2022-09-07T13:35:06.017Z,7.78
2022-09-07T13:40:13.926Z,5.63
2022-09-07T13:45:27.737Z,9.25
2022-09-07T13:50:52.300Z,4.40
2022-09-07T13:56:07.499Z,5.25
2022-09-07T14:01:28.729Z,7.40
2022-09-07T14:06:33.226Z,8.07
2022-09-07T14:12:12.286Z,8.20
2022-09-07T14:17:18.190Z,8.88
2022-09-07T14:22:35.153Z,8.27
2022-09-07T14:27:44.671Z,7.35
2022-09-07T14:32:55.826Z,12.20
2022-09-07T14:38:06.776Z,8.40
2022-09-07T14:43:34.271Z,7.97
2022-09-07T14:48:39.923Z,11.85
2022-09-07T14:53:47.515Z,10.35
2022-09-07T14:58:51.568Z,9.43
2022-09-07T15:04:01.040Z,13.20
2022-09-07T15:09:04.858Z,10.40
2022-09-07T15:14:17.070Z,12.48
2022-09-07T15:19:18.764Z,10.35
2022-09-07T15:24:20.377Z,8.40
2022-09-07T15:29:24.584Z,13.10
2022-09-07T15:34:28.546Z,7.93
2022-09-07T15:39:30.577Z,9.80
2022-09-07T15:44:32.593Z,10.35
2022-09-07T15:49:34.912Z,10.85
2022-09-07T15:54:39.879Z,9.65
2022-09-07T15:59:41.774Z,10.63
2022-09-07T16:04:44.635Z,8.07
2022-09-07T16:09:46.934Z,9.80
2022-09-07T16:14:48.781Z,9.38
2022-09-07T16:19:50.480Z,6.97
2022-09-07T16:24:52.354Z,6.32
2022-09-07T16:29:54.046Z,6.95
2022-09-07T16:34:56.680Z,9.15
2022-09-07T16:39:59.569Z,11.70
2022-09-07T16:50:23.552Z,9.35
2022-09-07T16:55:25.463Z,6.22
2022-09-07T17:00:32.349Z,7.40
2022-09-07T17:06:08.881Z,10.33
2022-09-07T17:11:19.177Z,9.68
2022-09-07T17:16:29.985Z,12.23
2022-09-07T17:21:38.904Z,6.53
2022-09-07T17:26:42.261Z,9.82
2022-09-07T17:37:09.109Z,7.28
2022-09-07T17:42:13.840Z,7.78
2022-09-07T17:47:15.422Z,11.10
2022-09-07T17:52:17.236Z,8.18
2022-09-07T17:57:19.073Z,5.20
2022-09-07T18:02:20.772Z,9.10
2022-09-07T18:07:22.415Z,9.93
2022-09-07T18:12:25.311Z,8.77
2022-09-07T18:17:28.095Z,13.18
2022-09-07T18:22:29.968Z,11.70
2022-09-07T18:27:34.415Z,9.70
2022-09-07T18:32:36.092Z,9.05
2022-09-07T18:37:39.429Z,6.30
2022-09-07T18:42:42.145Z,12.68
2022-09-07T18:47:47.817Z,9.77
2022-09-07T18:53:16.766Z,11.05
2022-09-07T18:58:19.037Z,7.57
2022-09-07T19:03:21.354Z,10.48
2022-09-07T19:08:23.036Z,9.10
2022-09-07T19:13:24.719Z,7.15
2022-09-07T19:18:26.453Z,10.25
2022-09-07T19:23:28.169Z,8.85
2022-09-07T19:28:30.827Z,9.43
2022-09-07T19:33:33.845Z,11.23
2022-09-07T19:38:35.932Z,11.05
2022-09-07T19:43:38.548Z,8.15
2022-09-07T19:48:41.070Z,9.10
2022-09-07T19:53:46.040Z,12.88
2022-09-07T19:58:49.569Z,10.60
2022-09-07T20:04:00.252Z,8.43
2022-09-07T20:09:02.237Z,16.60
2022-09-07T20:14:04.170Z,12.68
2022-09-07T20:19:07.555Z,13.57
2022-09-07T20:24:13.974Z,17.00
2022-09-07T20:29:27.319Z,7.72
2022-09-07T20:34:30.159Z,13.93
2022-09-07T20:39:34.659Z,10.13
2022-09-07T20:44:40.352Z,15.73
2022-09-07T20:49:42.389Z,14.20
2022-09-07T20:54:44.106Z,11.90
2022-09-07T20:59:45.755Z,12.23
2022-09-07T21:04:47.449Z,10.02
2022-09-07T21:09:49.977Z,12.15
2022-09-07T21:14:52.815Z,10.07
2022-09-07T21:19:54.481Z,9.75
2022-09-07T21:24:58.152Z,10.43
2022-09-07T21:30:00.209Z,9.88
2022-09-07T21:35:02.613Z,14.70
2022-09-07T21:40:08.123Z,10.32
2022-09-07T21:45:11.867Z,11.45
2022-09-07T21:50:13.531Z,9.45
2022-09-07T21:55:15.310Z,9.60
2022-09-07T22:00:22.756Z,9.63
2022-09-07T22:05:24.520Z,10.98
2022-09-07T22:10:26.345Z,16.27
2022-09-07T22:15:29.106Z,7.63
2022-09-07T22:20:32.189Z,9.43
2022-09-07T22:25:34.725Z,7.03
2022-09-07T22:30:36.358Z,9.93
2022-09-07T22:35:37.987Z,7.72
2022-09-07T22:40:42.758Z,11.13
2022-09-07T22:45:44.532Z,8.88
2022-09-07T22:50:55.836Z,11.55
2022-09-07T22:55:58.056Z,11.25
2022-09-07T23:01:00.588Z,13.25
2022-09-07T23:06:03.330Z,9.32
2022-09-07T23:11:06.394Z,10.90
2022-09-07T23:16:08.164Z,6.68
2022-09-07T23:21:10.891Z,10.05
2022-09-07T23:26:13.559Z,11.00
2022-09-07T23:31:15.182Z,7.65
2022-09-07T23:36:17.621Z,5.18
2022-09-07T23:41:19.326Z,4.18
2022-09-07T23:46:21.713Z,4.88
2022-09-07T23:51:24.687Z,4.10
2022-09-07T23:56:27.990Z,4.70
